This is the latest recevied weather packets stored in our database for station/object SR9WXZ. If no packets are shown the sender has not sent any weather packets the latest 1 day(s).
| Time | Temp. | Humidity | Pressure | Rain* | Wind** | Luminosity | Snow |
|---|---|---|---|---|---|---|---|
| 1778002983 | 22.22° C | 100% | 0 hPa | - | 5.36 m/s, 155° | - | - |
| 1778002683 | 22.78° C | 100% | 0 hPa | - | 4.47 m/s, 150° | - | - |
| 1778002383 | 22.78° C | 100% | 0 hPa | - | 5.36 m/s, 153° | - | - |
| 1778002091 | 22.78° C | 100% | 0 hPa | - | 6.26 m/s, 153° | - | - |
| 1778001782 | 22.78° C | 100% | 0 hPa | - | 6.26 m/s, 144° | - | - |
| 1778001482 | 23.33° C | 100% | 0 hPa | - | 6.71 m/s, 151° | - | - |
| 1778001182 | 23.33° C | 100% | 0 hPa | - | 4.47 m/s, 151° | - | - |
| 1778000881 | 23.33° C | 100% | 0 hPa | - | 6.26 m/s, 146° | - | - |
| 1778000581 | 23.33° C | 100% | 0 hPa | - | 4.47 m/s, 129° | - | - |
| 1778000281 | 23.33° C | 100% | 0 hPa | - | 4.47 m/s, 125° | - | - |
| 1777999981 | 23.33° C | 100% | 0 hPa | - | 3.13 m/s, 122° | - | - |
| 1777999681 | 23.33° C | 100% | 0 hPa | - | 3.58 m/s, 121° | - | - |
| 1777999381 | 23.89° C | 100% | 0 hPa | - | 4.47 m/s, 124° | - | - |
| 1777999079 | 23.89° C | 100% | 0 hPa | - | 4.47 m/s, 119° | - | - |
| 1777998779 | 23.89° C | 100% | 0 hPa | - | 4.92 m/s, 122° | - | - |
| 1777998478 | 23.89° C | 100% | 0 hPa | - | 4.02 m/s, 119° | - | - |
| 1777998179 | 23.89° C | 100% | 0 hPa | - | 6.26 m/s, 128° | - | - |
| 1777997878 | 23.89° C | 100% | 0 hPa | - | 6.26 m/s, 125° | - | - |
| 1777997578 | 24.44° C | 100% | 0 hPa | - | 4.92 m/s, 123° | - | - |
| 1777997278 | 23.89° C | 100% | 0 hPa | - | 4.92 m/s, 131° | - | - |
| 1777996977 | 23.89° C | 100% | 0 hPa | - | 4.02 m/s, 122° | - | - |
| 1777996677 | 24.44° C | 100% | 0 hPa | - | 4.92 m/s, 123° | - | - |
| 1777996377 | 24.44° C | 100% | 0 hPa | - | 6.26 m/s, 127° | - | - |
| 1777996077 | 24.44° C | 100% | 0 hPa | - | 6.71 m/s, 127° | - | - |
| 1777995776 | 24.44° C | 100% | 0 hPa | - | 6.71 m/s, 125° | - | - |
* Rain since midnight (hover to see other rain measurements)
** Current wind speed in m/s (hover to see current wind gust speed)